createdAt,value
2017-10-20T00:01:54.768Z,82.19
2017-10-20T00:04:23.913Z,81.59
2017-10-20T00:06:52.257Z,82.37
2017-10-20T00:09:20.597Z,82.24
2017-10-20T00:11:48.982Z,81.36
2017-10-20T00:14:17.343Z,81.79
2017-10-20T00:16:46.144Z,81.99
2017-10-20T00:19:14.886Z,81.99
2017-10-20T00:21:43.225Z,81.38
2017-10-20T00:24:12.931Z,81.06
2017-10-20T00:26:41.326Z,80.42
2017-10-20T00:29:10.542Z,80.83
2017-10-20T00:31:38.881Z,81.24
2017-10-20T00:34:07.258Z,81.80
2017-10-20T00:36:35.609Z,82.63
2017-10-20T00:39:05.030Z,82.24
2017-10-20T00:41:33.594Z,81.80
2017-10-20T00:44:02.943Z,81.79
2017-10-20T00:46:32.048Z,83.13
2017-10-20T00:49:01.196Z,83.07
2017-10-20T00:51:29.574Z,83.73
2017-10-20T00:53:57.966Z,82.36
2017-10-20T00:56:26.349Z,82.87
2017-10-20T00:58:54.747Z,82.75
2017-10-20T01:01:23.554Z,82.24
2017-10-20T01:03:53.168Z,82.48
2017-10-20T01:06:22.288Z,82.35
2017-10-20T01:08:50.640Z,82.26
2017-10-20T01:11:20.450Z,82.05
2017-10-20T01:13:48.799Z,81.93
2017-10-20T01:16:17.182Z,81.71
2017-10-20T01:18:45.566Z,81.19
2017-10-20T01:21:13.925Z,81.14
2017-10-20T01:23:42.299Z,80.40
2017-10-20T01:26:10.881Z,80.59
2017-10-20T01:28:39.650Z,81.14
2017-10-20T01:31:07.998Z,81.52
2017-10-20T01:33:37.129Z,82.00
2017-10-20T01:36:06.118Z,82.06
2017-10-20T01:38:34.463Z,81.84
2017-10-20T01:41:03.604Z,81.45
2017-10-20T01:43:32.458Z,81.57
2017-10-20T01:46:01.572Z,82.03
2017-10-20T01:48:30.262Z,81.94
2017-10-20T01:50:58.616Z,83.32
2017-10-20T01:53:26.963Z,83.26
2017-10-20T01:55:55.357Z,82.49
2017-10-20T01:58:23.717Z,81.59
2017-10-20T02:00:52.053Z,82.72
2017-10-20T02:03:20.453Z,82.34
2017-10-20T02:05:48.788Z,82.91
2017-10-20T02:08:17.130Z,83.42
2017-10-20T02:10:45.874Z,83.26
2017-10-20T02:13:14.226Z,83.31
2017-10-20T02:15:43.344Z,82.60
2017-10-20T02:18:11.762Z,81.72
2017-10-20T02:20:40.126Z,82.55
2017-10-20T02:23:08.487Z,83.13
2017-10-20T02:25:37.121Z,82.57
2017-10-20T02:28:05.703Z,83.84
2017-10-20T02:30:34.099Z,84.00
2017-10-20T02:33:03.022Z,82.77
2017-10-20T02:35:32.168Z,82.73
2017-10-20T02:38:00.526Z,82.75
2017-10-20T02:40:28.897Z,82.71
2017-10-20T02:42:57.386Z,82.59
2017-10-20T02:45:26.292Z,82.67
2017-10-20T02:47:54.679Z,82.69
2017-10-20T02:50:23.042Z,83.23
2017-10-20T02:52:52.114Z,82.09
2017-10-20T02:55:20.862Z,81.27
2017-10-20T02:57:49.204Z,81.75
2017-10-20T03:00:17.553Z,81.91
2017-10-20T03:02:45.938Z,81.36
2017-10-20T03:05:14.281Z,80.81
2017-10-20T03:07:43.419Z,81.10
2017-10-20T03:10:11.781Z,81.48
2017-10-20T03:12:40.141Z,80.75
2017-10-20T03:15:09.189Z,80.61
2017-10-20T03:17:37.818Z,80.91
2017-10-20T03:20:06.146Z,80.83
2017-10-20T03:22:35.211Z,80.38
2017-10-20T03:25:04.384Z,80.71
2017-10-20T03:27:32.738Z,80.99
2017-10-20T03:30:01.078Z,81.54
2017-10-20T03:32:30.170Z,81.11
2017-10-20T03:34:58.533Z,80.59
2017-10-20T03:37:26.894Z,80.59
2017-10-20T03:39:55.328Z,80.82
2017-10-20T03:42:23.677Z,81.05
2017-10-20T03:44:52.794Z,81.27
2017-10-20T03:47:21.935Z,82.65
2017-10-20T03:49:50.299Z,82.69
2017-10-20T03:52:18.672Z,83.78
2017-10-20T03:54:47.052Z,83.42
2017-10-20T03:57:15.432Z,81.99
2017-10-20T03:59:43.821Z,81.88
2017-10-20T04:02:13.676Z,81.91
2017-10-20T04:04:42.276Z,82.19
2017-10-20T04:07:10.613Z,82.46
2017-10-20T04:09:38.993Z,82.77
2017-10-20T04:12:07.330Z,82.69
2017-10-20T04:14:35.709Z,82.02
2017-10-20T04:17:04.087Z,81.80
2017-10-20T04:19:32.441Z,82.03
2017-10-20T04:22:00.790Z,81.83
2017-10-20T04:24:30.110Z,81.40
2017-10-20T04:26:59.525Z,80.47
2017-10-20T04:29:27.971Z,81.32
2017-10-20T04:31:56.585Z,81.18
2017-10-20T04:34:25.749Z,80.68
2017-10-20T04:36:54.101Z,79.71
2017-10-20T04:39:22.473Z,79.64
2017-10-20T04:41:51.290Z,79.73
2017-10-20T04:44:19.880Z,79.67
2017-10-20T04:46:48.405Z,79.07
2017-10-20T04:49:16.757Z,78.67
2017-10-20T04:51:45.398Z,78.66
2017-10-20T04:54:13.778Z,79.25
2017-10-20T04:56:42.123Z,78.61
2017-10-20T04:59:10.509Z,78.52
2017-10-20T05:01:39.630Z,78.65
2017-10-20T05:04:08.000Z,78.81
2017-10-20T05:06:36.356Z,79.25
2017-10-20T05:09:05.181Z,79.93
2017-10-20T05:11:33.513Z,79.31
2017-10-20T05:14:01.882Z,79.80
2017-10-20T05:16:30.317Z,79.84
2017-10-20T05:18:59.070Z,80.91
2017-10-20T05:21:27.860Z,81.03
2017-10-20T05:23:56.991Z,80.14
2017-10-20T05:26:25.345Z,79.74
2017-10-20T05:28:54.608Z,79.44
2017-10-20T05:31:23.325Z,79.82
2017-10-20T05:33:52.574Z,79.87
2017-10-20T05:36:20.926Z,79.12
2017-10-20T05:38:49.812Z,78.93
2017-10-20T05:41:18.156Z,78.52
2017-10-20T05:43:47.329Z,78.76
2017-10-20T05:46:15.705Z,78.79
2017-10-20T05:48:44.920Z,78.53
2017-10-20T05:51:13.352Z,77.74
2017-10-20T05:53:42.817Z,77.14
2017-10-20T05:56:11.175Z,77.18
2017-10-20T05:58:40.022Z,77.01
2017-10-20T06:01:09.286Z,77.49
2017-10-20T06:03:37.755Z,77.11
2017-10-20T06:06:07.951Z,76.89
2017-10-20T06:08:36.335Z,76.83
2017-10-20T06:11:04.777Z,76.89
2017-10-20T06:13:33.128Z,77.09
2017-10-20T06:16:02.976Z,78.39
2017-10-20T06:18:31.320Z,78.32
2017-10-20T06:20:59.689Z,78.20
2017-10-20T06:23:28.070Z,77.50
2017-10-20T06:25:56.446Z,77.29
2017-10-20T06:28:24.837Z,78.06
2017-10-20T06:30:54.025Z,78.95
2017-10-20T06:35:57.090Z,77.55
2017-10-20T06:38:25.485Z,77.94
2017-10-20T06:40:53.833Z,77.91
2017-10-20T06:43:22.214Z,76.81
2017-10-20T06:45:50.545Z,76.86
2017-10-20T06:48:18.926Z,76.87
2017-10-20T06:50:47.516Z,76.55
2017-10-20T06:53:16.743Z,76.59
2017-10-20T06:55:45.094Z,76.67
2017-10-20T06:58:13.549Z,75.67
2017-10-20T07:00:41.885Z,75.17
2017-10-20T07:03:10.243Z,75.42
2017-10-20T07:05:38.617Z,76.54
2017-10-20T07:08:06.962Z,76.54
2017-10-20T07:10:35.318Z,76.98
2017-10-20T07:13:03.687Z,76.44
2017-10-20T07:15:33.006Z,75.79
2017-10-20T07:18:03.607Z,76.06
2017-10-20T07:20:32.411Z,77.85
2017-10-20T07:23:00.810Z,77.82
2017-10-20T07:25:29.163Z,78.32
2017-10-20T07:27:58.946Z,78.30
2017-10-20T07:30:27.398Z,77.40
2017-10-20T07:32:56.770Z,75.52
2017-10-20T07:35:25.384Z,74.99
2017-10-20T07:37:53.738Z,75.08
2017-10-20T07:40:22.104Z,74.13
2017-10-20T07:42:50.560Z,73.27
2017-10-20T07:45:19.683Z,73.71
2017-10-20T07:47:48.051Z,72.91
2017-10-20T07:50:17.204Z,71.72
2017-10-20T07:52:46.186Z,70.89
2017-10-20T07:55:14.543Z,71.24
2017-10-20T07:57:42.923Z,71.18
2017-10-20T08:00:11.303Z,71.26
2017-10-20T08:02:39.650Z,70.94
2017-10-20T08:05:08.105Z,69.72
2017-10-20T08:07:37.122Z,69.04
2017-10-20T08:10:06.246Z,68.06
2017-10-20T08:12:34.657Z,67.12
2017-10-20T08:15:03.010Z,65.68
2017-10-20T08:17:31.347Z,64.57
2017-10-20T08:20:00.493Z,66.71
2017-10-20T08:22:29.292Z,66.97
2017-10-20T08:24:59.382Z,67.79
2017-10-20T08:27:27.815Z,66.19
2017-10-20T08:29:56.842Z,66.55
2017-10-20T08:32:25.979Z,65.41
2017-10-20T08:34:55.137Z,65.28
2017-10-20T08:37:23.744Z,64.75
2017-10-20T08:39:52.082Z,66.00
2017-10-20T08:42:20.470Z,65.98
2017-10-20T08:44:49.587Z,66.26
2017-10-20T08:47:19.520Z,67.29
2017-10-20T08:49:48.642Z,66.46
2017-10-20T08:52:17.384Z,66.98
2017-10-20T08:54:46.061Z,66.13
2017-10-20T08:57:14.962Z,65.85
2017-10-20T08:59:44.150Z,65.89
2017-10-20T09:02:13.155Z,67.20
2017-10-20T09:04:41.565Z,67.81
2017-10-20T09:07:10.455Z,67.33
2017-10-20T09:09:39.621Z,67.51
2017-10-20T09:12:08.326Z,68.43
2017-10-20T09:14:36.997Z,68.40
2017-10-20T09:17:05.390Z,68.43
2017-10-20T09:19:33.741Z,67.48
2017-10-20T09:22:02.133Z,65.96
2017-10-20T09:24:31.738Z,66.75
2017-10-20T09:27:00.763Z,66.48
2017-10-20T09:29:29.274Z,66.73
2017-10-20T09:31:57.626Z,67.78
2017-10-20T09:34:26.946Z,66.84
2017-10-20T09:36:55.583Z,62.06
2017-10-20T09:39:24.693Z,59.45
2017-10-20T09:41:53.073Z,61.04
2017-10-20T09:44:21.433Z,61.17
2017-10-20T09:46:49.842Z,62.23
2017-10-20T09:49:18.215Z,61.85
2017-10-20T09:51:46.577Z,62.63
2017-10-20T09:54:15.687Z,63.61
2017-10-20T09:56:44.651Z,63.57
2017-10-20T09:59:13.022Z,64.12
2017-10-20T10:01:41.408Z,64.02
2017-10-20T10:04:10.766Z,63.97
2017-10-20T10:06:39.450Z,62.94
2017-10-20T10:09:07.797Z,62.79
2017-10-20T10:11:37.283Z,62.34
2017-10-20T10:14:05.885Z,62.36
2017-10-20T10:16:35.651Z,62.24
2017-10-20T10:19:04.114Z,62.55
2017-10-20T10:21:33.382Z,62.15
2017-10-20T10:24:02.542Z,63.17
2017-10-20T10:26:30.989Z,63.06
2017-10-20T10:28:59.451Z,63.23
2017-10-20T10:31:28.429Z,64.51
2017-10-20T10:33:57.661Z,64.44
2017-10-20T10:36:26.010Z,64.91
2017-10-20T10:38:55.117Z,65.78
2017-10-20T10:41:23.696Z,65.40
2017-10-20T10:43:52.046Z,65.57
2017-10-20T10:46:21.166Z,65.64
2017-10-20T10:48:50.294Z,66.19
2017-10-20T10:51:18.638Z,66.14
2017-10-20T10:53:46.981Z,66.44
2017-10-20T10:56:15.348Z,66.28
2017-10-20T10:58:43.698Z,67.82
2017-10-20T11:01:12.033Z,68.31
2017-10-20T11:03:41.132Z,67.68
2017-10-20T11:06:28.415Z,67.83
2017-10-20T11:09:14.428Z,68.63
2017-10-20T11:12:00.911Z,70.14
2017-10-20T11:14:29.278Z,70.84
2017-10-20T11:16:57.635Z,71.14
2017-10-20T11:19:27.449Z,71.59
2017-10-20T11:21:55.994Z,72.23
2017-10-20T11:24:25.172Z,71.62
2017-10-20T11:26:53.917Z,72.14
2017-10-20T11:29:22.291Z,72.14
2017-10-20T11:31:52.109Z,71.95
2017-10-20T11:34:20.489Z,72.10
2017-10-20T11:36:48.862Z,72.94
2017-10-20T11:39:17.221Z,72.13
2017-10-20T11:41:47.050Z,71.90
2017-10-20T11:44:15.487Z,72.44
2017-10-20T11:46:43.835Z,72.87
2017-10-20T11:49:12.416Z,73.83
2017-10-20T11:51:41.018Z,74.28
2017-10-20T11:54:09.376Z,74.25
2017-10-20T11:56:37.724Z,74.58
2017-10-20T11:59:06.891Z,74.51
2017-10-20T12:01:35.480Z,74.08
2017-10-20T12:04:03.839Z,74.83
2017-10-20T12:06:32.536Z,73.87
2017-10-20T12:09:00.909Z,73.72
2017-10-20T12:11:29.382Z,73.64
2017-10-20T12:13:58.558Z,74.80
2017-10-20T12:16:26.905Z,74.93
2017-10-20T12:18:55.278Z,76.04
2017-10-20T12:21:23.661Z,75.89
2017-10-20T12:23:52.007Z,76.30
2017-10-20T12:26:20.396Z,76.09
2017-10-20T12:28:48.965Z,75.80
2017-10-20T12:31:17.301Z,75.44
2017-10-20T12:33:46.456Z,74.73
2017-10-20T12:36:14.842Z,73.95
2017-10-20T12:38:43.211Z,75.04
2017-10-20T12:41:11.584Z,76.38
2017-10-20T12:43:39.954Z,76.44
2017-10-20T12:46:08.281Z,75.90
2017-10-20T12:48:37.390Z,75.64
2017-10-20T12:51:06.771Z,75.83
2017-10-20T12:53:35.121Z,75.79
2017-10-20T12:56:03.475Z,76.01
2017-10-20T12:58:31.877Z,75.75
2017-10-20T13:01:00.933Z,75.89
2017-10-20T13:03:29.442Z,75.45
2017-10-20T13:05:57.808Z,75.31
2017-10-20T13:08:26.141Z,74.47
2017-10-20T13:10:54.495Z,74.61
2017-10-20T13:13:23.251Z,74.81
2017-10-20T13:15:51.603Z,74.28
2017-10-20T13:18:20.745Z,73.10
2017-10-20T13:20:49.123Z,73.72
2017-10-20T13:23:17.538Z,74.16
2017-10-20T13:25:45.897Z,74.53
2017-10-20T13:28:15.130Z,75.30
2017-10-20T13:30:44.284Z,75.23
2017-10-20T13:33:12.639Z,75.05
2017-10-20T13:35:41.311Z,75.75
2017-10-20T13:38:09.663Z,75.11
2017-10-20T13:40:38.021Z,74.80
2017-10-20T13:43:06.392Z,74.86
2017-10-20T13:45:34.749Z,75.64
2017-10-20T13:48:03.111Z,75.02
2017-10-20T13:50:31.867Z,74.53
2017-10-20T13:53:01.003Z,74.68
2017-10-20T13:55:29.856Z,75.13
2017-10-20T13:57:59.357Z,75.24
2017-10-20T14:00:28.497Z,75.02
2017-10-20T14:02:56.853Z,76.03
2017-10-20T14:05:26.063Z,75.98
2017-10-20T14:07:54.438Z,75.52
2017-10-20T14:10:22.828Z,75.10
2017-10-20T14:12:51.860Z,75.83
2017-10-20T14:15:20.227Z,76.77
2017-10-20T14:17:48.598Z,77.56
2017-10-20T14:20:17.487Z,77.06
2017-10-20T14:22:46.290Z,77.19
2017-10-20T14:25:14.681Z,76.80
2017-10-20T14:27:43.298Z,76.03
2017-10-20T14:30:12.670Z,76.21
2017-10-20T14:32:41.051Z,75.78
2017-10-20T14:35:09.968Z,77.55
2017-10-20T14:37:38.299Z,79.49
2017-10-20T14:40:06.640Z,79.67
2017-10-20T14:42:36.724Z,79.07
2017-10-20T14:45:05.063Z,81.39
2017-10-20T14:47:33.399Z,81.66
2017-10-20T14:50:01.784Z,81.64
2017-10-20T14:52:30.971Z,81.30
2017-10-20T14:55:00.224Z,81.14
2017-10-20T14:57:28.797Z,81.08
2017-10-20T14:59:57.316Z,80.98
2017-10-20T15:02:25.675Z,80.87
2017-10-20T15:04:54.575Z,79.97
2017-10-20T15:07:22.914Z,80.50
2017-10-20T15:09:51.673Z,79.15
2017-10-20T15:12:20.137Z,75.37
2017-10-20T15:14:48.889Z,71.01
2017-10-20T15:17:17.331Z,68.62
2017-10-20T15:19:46.651Z,66.02
2017-10-20T15:22:15.758Z,66.89
2017-10-20T15:24:45.463Z,69.32
2017-10-20T15:27:14.256Z,70.87
2017-10-20T15:29:42.949Z,72.27
2017-10-20T15:32:11.356Z,72.22
2017-10-20T15:34:39.758Z,73.91
2017-10-20T15:37:08.104Z,74.53
2017-10-20T15:39:37.241Z,74.99
2017-10-20T15:42:05.601Z,74.71
2017-10-20T15:44:34.153Z,74.98
2017-10-20T15:47:02.495Z,75.49
2017-10-20T15:49:32.020Z,76.48
2017-10-20T15:52:00.385Z,77.47
2017-10-20T15:54:29.593Z,77.94
2017-10-20T15:56:57.962Z,78.58
2017-10-20T15:59:27.078Z,78.40
2017-10-20T16:01:56.202Z,79.63
2017-10-20T16:04:24.591Z,79.82
2017-10-20T16:06:52.925Z,80.31
2017-10-20T16:09:22.038Z,80.21
2017-10-20T16:11:50.921Z,80.22
2017-10-20T16:14:19.264Z,80.39
2017-10-20T16:16:47.619Z,81.28
2017-10-20T16:19:16.912Z,81.35
2017-10-20T16:21:46.065Z,80.58
2017-10-20T16:24:14.443Z,81.08
2017-10-20T16:26:43.592Z,81.53
2017-10-20T16:29:11.946Z,81.16
2017-10-20T16:31:40.296Z,80.77
2017-10-20T16:34:08.778Z,80.48
2017-10-20T16:36:37.330Z,80.06
2017-10-20T16:39:05.685Z,80.06
2017-10-20T16:41:34.081Z,80.48
2017-10-20T16:44:02.432Z,79.93
2017-10-20T16:46:30.838Z,80.96
2017-10-20T16:48:59.214Z,80.24
2017-10-20T16:51:27.568Z,80.83
2017-10-20T16:53:55.922Z,80.70
2017-10-20T16:56:24.384Z,80.52
2017-10-20T16:58:53.728Z,80.04
2017-10-20T17:01:22.082Z,80.00
2017-10-20T17:03:51.368Z,80.42
2017-10-20T17:06:21.285Z,80.76
2017-10-20T17:08:49.667Z,80.87
2017-10-20T17:11:18.790Z,81.34
2017-10-20T17:13:47.165Z,80.61
2017-10-20T17:16:15.678Z,80.51
2017-10-20T17:18:44.207Z,80.71
2017-10-20T17:21:13.335Z,80.44
2017-10-20T17:23:41.686Z,80.72
2017-10-20T17:26:10.127Z,80.88
2017-10-20T17:28:38.515Z,80.39
2017-10-20T17:31:06.874Z,80.40
2017-10-20T17:33:35.340Z,80.45
2017-10-20T17:36:03.710Z,80.99
2017-10-20T17:38:32.655Z,81.00
2017-10-20T17:41:01.140Z,81.05
2017-10-20T17:43:29.814Z,81.44
2017-10-20T17:45:58.188Z,81.60
2017-10-20T17:48:27.076Z,81.48
2017-10-20T17:50:55.768Z,82.20
2017-10-20T17:53:24.122Z,82.35
2017-10-20T17:55:52.494Z,82.34
2017-10-20T17:58:21.091Z,81.78
2017-10-20T18:00:49.443Z,82.07
2017-10-20T18:03:18.024Z,82.37
2017-10-20T18:05:47.182Z,82.38
2017-10-20T18:08:15.529Z,82.37
2017-10-20T18:10:43.910Z,82.02
2017-10-20T18:13:12.243Z,82.23
2017-10-20T18:15:41.365Z,81.77
2017-10-20T18:18:09.746Z,81.44
2017-10-20T18:20:38.108Z,81.32
2017-10-20T18:23:07.242Z,81.61
2017-10-20T18:25:35.756Z,81.61
2017-10-20T18:28:04.113Z,81.40
2017-10-20T18:30:33.036Z,81.25
2017-10-20T18:33:01.412Z,80.88
2017-10-20T18:35:29.746Z,80.43
2017-10-20T18:37:58.101Z,80.24
2017-10-20T18:40:26.481Z,80.82
2017-10-20T18:42:55.532Z,80.91
2017-10-20T18:45:23.950Z,80.58
2017-10-20T18:47:52.518Z,80.32
2017-10-20T18:50:20.847Z,80.17
2017-10-20T18:52:49.204Z,80.57
2017-10-20T18:55:17.565Z,80.97
2017-10-20T18:57:45.958Z,80.74
2017-10-20T19:00:14.302Z,80.14
2017-10-20T19:02:42.680Z,79.39
2017-10-20T19:05:11.044Z,79.82
2017-10-20T19:07:39.453Z,79.43
2017-10-20T19:10:08.800Z,78.98
2017-10-20T19:12:37.386Z,78.81
2017-10-20T19:15:05.731Z,79.47
2017-10-20T19:17:34.866Z,80.36
2017-10-20T19:20:03.210Z,79.54
2017-10-20T19:22:31.589Z,78.86
2017-10-20T19:24:59.965Z,78.87
2017-10-20T19:27:28.354Z,78.65
2017-10-20T19:29:56.850Z,78.41
2017-10-20T19:32:25.607Z,78.42
2017-10-20T19:34:54.726Z,79.28
2017-10-20T19:37:23.074Z,79.30
2017-10-20T19:39:52.424Z,78.84
2017-10-20T19:42:20.783Z,78.69
2017-10-20T19:44:49.152Z,78.50
2017-10-20T19:47:18.180Z,78.47
2017-10-20T19:49:46.530Z,78.13
2017-10-20T19:52:14.883Z,78.40
2017-10-20T19:54:44.200Z,78.78
2017-10-20T19:57:12.672Z,78.23
2017-10-20T19:59:41.808Z,78.59
2017-10-20T20:02:10.311Z,77.83
2017-10-20T20:04:38.738Z,77.48
2017-10-20T20:07:07.787Z,77.79
2017-10-20T20:09:36.144Z,78.00
2017-10-20T20:12:05.302Z,77.38
2017-10-20T20:14:35.254Z,77.56
2017-10-20T20:17:04.999Z,77.77
2017-10-20T20:19:34.035Z,77.90
2017-10-20T20:22:02.392Z,77.86
2017-10-20T20:24:30.783Z,78.27
2017-10-20T20:26:59.921Z,78.57
2017-10-20T20:29:28.253Z,78.99
2017-10-20T20:32:08.628Z,78.87
2017-10-20T20:34:36.990Z,77.99
2017-10-20T20:37:06.093Z,78.22
2017-10-20T20:39:35.255Z,78.55
2017-10-20T20:42:03.617Z,78.66
2017-10-20T20:44:32.001Z,78.99
2017-10-20T20:47:00.417Z,78.15
2017-10-20T20:49:28.786Z,78.75
2017-10-20T20:51:57.154Z,78.11
2017-10-20T20:54:25.756Z,78.26
2017-10-20T20:56:54.106Z,77.87
2017-10-20T20:59:22.490Z,77.75
2017-10-20T21:01:50.867Z,77.39
2017-10-20T21:04:19.259Z,77.83
2017-10-20T21:06:47.631Z,77.97
2017-10-20T21:09:16.042Z,78.06
2017-10-20T21:11:44.391Z,77.86
2017-10-20T21:14:12.869Z,78.11
2017-10-20T21:16:41.407Z,78.25
2017-10-20T21:19:09.810Z,77.84
2017-10-20T21:21:38.757Z,78.44
2017-10-20T21:24:07.138Z,78.07
2017-10-20T21:26:36.268Z,78.24
2017-10-20T21:29:04.625Z,79.50
2017-10-20T21:31:33.797Z,79.09
2017-10-20T21:34:02.975Z,78.27
2017-10-20T21:36:31.340Z,78.14
2017-10-20T21:39:00.585Z,78.12
2017-10-20T21:41:28.942Z,78.22
2017-10-20T21:43:57.296Z,79.21
2017-10-20T21:46:25.715Z,79.24
2017-10-20T21:48:54.086Z,79.28
2017-10-20T21:51:23.226Z,79.63
2017-10-20T21:53:52.248Z,79.45
2017-10-20T21:56:20.629Z,78.69
2017-10-20T21:58:48.975Z,78.88
2017-10-20T22:01:17.455Z,79.00
2017-10-20T22:03:45.808Z,78.96
2017-10-20T22:06:15.544Z,79.18
2017-10-20T22:08:43.944Z,78.72
2017-10-20T22:11:12.282Z,78.15
2017-10-20T22:13:41.500Z,77.13
2017-10-20T22:16:09.908Z,77.02
2017-10-20T22:18:38.287Z,77.03
2017-10-20T22:21:06.624Z,77.67
2017-10-20T22:23:35.972Z,77.18
2017-10-20T22:26:05.019Z,77.14
2017-10-20T22:28:34.155Z,77.17
2017-10-20T22:31:02.591Z,78.24
2017-10-20T22:33:32.815Z,77.59
2017-10-20T22:36:01.170Z,77.51
2017-10-20T22:38:29.548Z,77.35
2017-10-20T22:40:57.901Z,77.54
2017-10-20T22:43:26.244Z,77.63
2017-10-20T22:45:55.591Z,77.14
2017-10-20T22:48:23.934Z,77.39
2017-10-20T22:50:52.302Z,77.37
2017-10-20T22:53:21.443Z,77.62
2017-10-20T22:55:49.813Z,78.05
2017-10-20T22:58:18.180Z,77.93
2017-10-20T23:00:46.554Z,78.11
2017-10-20T23:03:14.904Z,77.25
2017-10-20T23:05:43.252Z,78.34
2017-10-20T23:08:11.831Z,78.56
2017-10-20T23:10:40.189Z,78.55
2017-10-20T23:13:09.330Z,78.28
2017-10-20T23:15:37.819Z,78.02
2017-10-20T23:18:06.164Z,77.58
2017-10-20T23:20:34.513Z,78.03
2017-10-20T23:23:02.878Z,76.98
2017-10-20T23:25:31.991Z,76.59
2017-10-20T23:28:00.338Z,76.91
2017-10-20T23:30:29.535Z,77.52
2017-10-20T23:32:57.885Z,77.10
2017-10-20T23:35:26.270Z,77.57
2017-10-20T23:37:55.321Z,78.69
2017-10-20T23:40:23.671Z,79.23
2017-10-20T23:42:52.041Z,78.26
2017-10-20T23:45:20.424Z,78.17
2017-10-20T23:47:48.796Z,78.95
2017-10-20T23:50:17.147Z,77.88
2017-10-20T23:52:45.730Z,78.53
2017-10-20T23:55:14.083Z,78.34
2017-10-20T23:57:42.471Z,77.41
